createdAt,value
2017-12-22T00:00:35.849Z,17
2017-12-22T00:01:35.661Z,17
2017-12-22T00:02:36.278Z,17
2017-12-22T00:03:36.434Z,17
2017-12-22T00:04:36.108Z,16.94
2017-12-22T00:05:36.293Z,16.94
2017-12-22T00:06:36.064Z,16.94
2017-12-22T00:07:36.028Z,16.94
2017-12-22T00:08:35.454Z,16.94
2017-12-22T00:09:36.227Z,16.94
2017-12-22T00:10:36.521Z,16.94
2017-12-22T00:11:36.006Z,16.94
2017-12-22T00:12:35.836Z,16.94
2017-12-22T00:13:35.864Z,16.87
2017-12-22T00:14:36.314Z,16.87
2017-12-22T00:15:35.686Z,16.87
2017-12-22T00:16:36.018Z,16.87
2017-12-22T00:17:36.075Z,16.87
2017-12-22T00:18:35.840Z,16.87
2017-12-22T00:19:35.661Z,16.87
2017-12-22T00:20:35.850Z,16.87
2017-12-22T00:21:35.860Z,16.87
2017-12-22T00:22:35.279Z,16.87
2017-12-22T00:23:35.465Z,16.87
2017-12-22T00:24:36.081Z,16.87
2017-12-22T00:25:36.459Z,16.81
2017-12-22T00:26:35.842Z,16.87
2017-12-22T00:27:36.055Z,16.81
2017-12-22T00:28:36.471Z,16.81
2017-12-22T00:29:35.872Z,16.81
2017-12-22T00:30:36.038Z,16.81
2017-12-22T00:31:35.900Z,16.81
2017-12-22T00:32:36.329Z,16.81
2017-12-22T00:33:36.212Z,16.81
2017-12-22T00:34:35.349Z,16.81
2017-12-22T00:35:36.117Z,16.81
2017-12-22T00:36:36.096Z,16.81
2017-12-22T00:37:36.137Z,16.81
2017-12-22T00:38:36.244Z,16.81
2017-12-22T00:39:35.675Z,16.75
2017-12-22T00:40:36.195Z,16.81
2017-12-22T00:41:35.818Z,16.75
2017-12-22T00:42:36.064Z,16.75
2017-12-22T00:43:36.103Z,16.75
2017-12-22T00:44:36.617Z,16.75
2017-12-22T00:45:36.177Z,16.75
2017-12-22T00:46:36.188Z,16.75
2017-12-22T00:47:36.018Z,16.75
2017-12-22T00:48:36.063Z,16.75
2017-12-22T00:49:36.286Z,16.75
2017-12-22T00:50:35.675Z,16.75
2017-12-22T00:51:35.691Z,16.75
2017-12-22T00:52:35.683Z,16.75
2017-12-22T00:53:35.528Z,16.75
2017-12-22T00:54:35.657Z,16.75
2017-12-22T00:55:35.897Z,16.75
2017-12-22T00:56:36.501Z,16.75
2017-12-22T00:57:35.873Z,16.75
2017-12-22T00:58:36.074Z,16.75
2017-12-22T00:59:36.040Z,16.69
2017-12-22T01:00:36.027Z,16.69
2017-12-22T01:01:36.126Z,16.69
2017-12-22T01:02:36.093Z,16.69
2017-12-22T01:03:36.297Z,16.69
2017-12-22T01:04:36.008Z,16.69
2017-12-22T01:05:36.082Z,16.69
2017-12-22T01:06:36.113Z,16.69
2017-12-22T01:07:36.454Z,16.69
2017-12-22T01:08:35.897Z,16.69
2017-12-22T01:09:35.820Z,16.69
2017-12-22T01:10:36.247Z,16.69
2017-12-22T01:11:36.111Z,16.69
2017-12-22T01:12:35.815Z,16.69
2017-12-22T01:13:35.706Z,16.69
2017-12-22T01:14:36.252Z,16.69
2017-12-22T01:15:35.951Z,16.69
2017-12-22T01:16:35.849Z,16.69
2017-12-22T01:17:36.140Z,16.69
2017-12-22T01:18:36.362Z,16.62
2017-12-22T01:19:36.191Z,16.62
2017-12-22T01:20:35.836Z,16.62
2017-12-22T01:21:35.902Z,16.62
2017-12-22T01:22:36.083Z,16.62
2017-12-22T01:23:36.280Z,16.62
2017-12-22T01:24:35.854Z,16.62
2017-12-22T01:25:36.149Z,16.62
2017-12-22T01:26:35.840Z,16.62
2017-12-22T01:27:36.444Z,16.62
2017-12-22T01:28:35.864Z,16.62
2017-12-22T01:29:35.826Z,16.62
2017-12-22T01:30:36.168Z,16.62
2017-12-22T01:31:35.949Z,16.62
2017-12-22T01:32:35.885Z,16.62
2017-12-22T01:33:35.149Z,16.62
2017-12-22T01:34:36.267Z,16.62
2017-12-22T01:35:35.975Z,16.62
2017-12-22T01:36:35.628Z,16.62
2017-12-22T01:37:35.992Z,16.56
2017-12-22T01:38:36.119Z,16.56
2017-12-22T01:39:35.522Z,16.56
2017-12-22T01:40:36.201Z,16.56
2017-12-22T01:41:36.419Z,16.56
2017-12-22T01:42:36.130Z,16.56
2017-12-22T01:43:35.678Z,16.56
2017-12-22T01:44:36.554Z,16.56
2017-12-22T01:45:35.693Z,16.56
2017-12-22T01:46:36.158Z,16.56
2017-12-22T01:47:36.305Z,16.56
2017-12-22T01:48:36.444Z,16.56
2017-12-22T01:49:35.674Z,16.56
2017-12-22T01:50:36.451Z,16.56
2017-12-22T01:51:36.486Z,16.56
2017-12-22T01:52:36.420Z,16.56
2017-12-22T01:53:36.289Z,16.5
2017-12-22T01:54:36.222Z,16.56
2017-12-22T01:55:35.941Z,16.5
2017-12-22T01:56:36.104Z,16.5
2017-12-22T01:57:36.263Z,16.5
2017-12-22T01:58:35.847Z,16.5
2017-12-22T01:59:36.265Z,16.5
2017-12-22T02:00:35.706Z,16.5
2017-12-22T02:01:35.964Z,16.5
2017-12-22T02:02:35.915Z,16.5
2017-12-22T02:03:36.253Z,16.5
2017-12-22T02:04:35.672Z,16.5
2017-12-22T02:05:36.289Z,16.5
2017-12-22T02:06:35.901Z,16.5
2017-12-22T02:07:36.130Z,16.5
2017-12-22T02:08:36.284Z,16.5
2017-12-22T02:09:35.855Z,16.5
2017-12-22T02:10:35.659Z,16.5
2017-12-22T02:11:36.058Z,16.5
2017-12-22T02:12:35.815Z,16.5
2017-12-22T02:13:36.080Z,16.5
2017-12-22T02:14:35.893Z,16.5
2017-12-22T02:15:36.075Z,16.5
2017-12-22T02:16:36.190Z,16.5
2017-12-22T02:17:35.723Z,16.5
2017-12-22T02:18:36.068Z,16.5
2017-12-22T02:19:35.944Z,16.5
2017-12-22T02:20:35.896Z,16.44
2017-12-22T02:21:35.948Z,16.44
2017-12-22T02:22:36.109Z,16.44
2017-12-22T02:23:36.278Z,16.44
2017-12-22T02:24:35.504Z,16.44
2017-12-22T02:25:36.229Z,16.44
2017-12-22T02:26:36.060Z,16.44
2017-12-22T02:27:36.091Z,16.44
2017-12-22T02:28:35.893Z,16.44
2017-12-22T02:29:35.531Z,16.44
2017-12-22T02:30:35.940Z,16.44
2017-12-22T02:31:36.328Z,16.44
2017-12-22T02:32:36.535Z,16.44
2017-12-22T02:33:36.298Z,16.44
2017-12-22T02:34:36.509Z,16.44
2017-12-22T02:35:36.333Z,16.44
2017-12-22T02:36:36.554Z,16.44
2017-12-22T02:37:36.364Z,16.44
2017-12-22T02:38:36.370Z,16.44
2017-12-22T02:39:36.310Z,16.37
2017-12-22T02:40:36.110Z,16.44
2017-12-22T02:41:36.549Z,16.44
2017-12-22T02:42:36.111Z,16.37
2017-12-22T02:43:35.942Z,16.44
2017-12-22T02:44:36.285Z,16.37
2017-12-22T02:45:36.167Z,16.37
2017-12-22T02:46:36.109Z,16.37
2017-12-22T02:47:35.888Z,16.37
2017-12-22T02:48:36.800Z,16.37
2017-12-22T02:49:36.262Z,16.37
2017-12-22T02:50:36.475Z,16.37
2017-12-22T02:51:36.547Z,16.37
2017-12-22T02:52:36.082Z,16.37
2017-12-22T02:53:36.358Z,16.37
2017-12-22T02:54:36.173Z,16.37
2017-12-22T02:55:36.299Z,16.37
2017-12-22T02:56:36.090Z,16.37
2017-12-22T02:57:36.084Z,16.37
2017-12-22T02:58:35.923Z,16.37
2017-12-22T02:59:36.074Z,16.37
2017-12-22T03:00:36.122Z,16.37
2017-12-22T03:01:36.314Z,16.37
2017-12-22T03:02:36.122Z,16.37
2017-12-22T03:03:36.776Z,16.37
2017-12-22T03:04:36.261Z,16.37
2017-12-22T03:05:36.054Z,16.37
2017-12-22T03:06:36.111Z,16.37
2017-12-22T03:07:35.925Z,16.31
2017-12-22T03:08:36.526Z,16.31
2017-12-22T03:09:36.199Z,16.31
2017-12-22T03:10:35.988Z,16.31
2017-12-22T03:11:36.106Z,16.31
2017-12-22T03:12:36.113Z,16.31
2017-12-22T03:13:35.463Z,16.31
2017-12-22T03:14:35.958Z,16.31
2017-12-22T03:15:36.304Z,16.31
2017-12-22T03:16:36.118Z,16.31
2017-12-22T03:17:35.693Z,16.31
2017-12-22T03:18:36.305Z,16.31
2017-12-22T03:19:35.896Z,16.31
2017-12-22T03:20:35.706Z,16.31
2017-12-22T03:21:36.550Z,16.31
2017-12-22T03:22:36.107Z,16.31
2017-12-22T03:23:35.830Z,16.31
2017-12-22T03:24:36.060Z,16.31
2017-12-22T03:25:36.307Z,16.31
2017-12-22T03:26:35.981Z,16.31
2017-12-22T03:27:35.847Z,16.31
2017-12-22T03:28:36.249Z,16.31
2017-12-22T03:29:36.089Z,16.31
2017-12-22T03:30:36.623Z,16.31
2017-12-22T03:31:36.251Z,16.31
2017-12-22T03:32:35.708Z,16.31
2017-12-22T03:33:36.278Z,16.25
2017-12-22T03:34:35.764Z,16.25
2017-12-22T03:35:35.705Z,16.25
2017-12-22T03:36:36.277Z,16.25
2017-12-22T03:37:35.519Z,16.25
2017-12-22T03:38:36.292Z,16.25
2017-12-22T03:39:36.065Z,16.25
2017-12-22T03:40:36.102Z,16.25
2017-12-22T03:41:35.913Z,16.25
2017-12-22T03:42:35.972Z,16.25
2017-12-22T03:43:36.177Z,16.25
2017-12-22T03:44:36.366Z,16.25
2017-12-22T03:45:35.931Z,16.25
2017-12-22T03:46:35.669Z,16.25
2017-12-22T03:47:35.861Z,16.25
2017-12-22T03:48:36.272Z,16.25
2017-12-22T03:49:36.266Z,16.25
2017-12-22T03:50:35.572Z,16.25
2017-12-22T03:51:36.069Z,16.25
2017-12-22T03:52:35.696Z,16.25
2017-12-22T03:53:35.723Z,16.25
2017-12-22T03:54:35.756Z,16.25
2017-12-22T03:56:08.284Z,16.25
2017-12-22T03:56:35.894Z,16.25
2017-12-22T03:57:35.951Z,16.25
2017-12-22T03:58:36.245Z,16.25
2017-12-22T03:59:36.171Z,16.25
2017-12-22T04:00:35.702Z,16.19
2017-12-22T04:01:35.940Z,16.25
2017-12-22T04:02:35.750Z,16.19
2017-12-22T04:03:35.902Z,16.25
2017-12-22T04:04:35.825Z,16.19
2017-12-22T04:05:36.129Z,16.19
2017-12-22T04:06:36.338Z,16.25
2017-12-22T04:07:36.018Z,16.19
2017-12-22T04:08:35.546Z,16.19
2017-12-22T04:09:35.981Z,16.19
2017-12-22T04:10:36.300Z,16.19
2017-12-22T04:11:36.140Z,16.19
2017-12-22T04:12:36.144Z,16.19
2017-12-22T04:13:35.838Z,16.19
2017-12-22T04:14:35.343Z,16.19
2017-12-22T04:15:36.506Z,16.19
2017-12-22T04:16:35.889Z,16.19
2017-12-22T04:17:35.767Z,16.19
2017-12-22T04:18:36.422Z,16.19
2017-12-22T04:19:35.970Z,16.19
2017-12-22T04:20:35.711Z,16.19
2017-12-22T04:21:36.137Z,16.19
2017-12-22T04:22:36.331Z,16.19
2017-12-22T04:23:36.154Z,16.19
2017-12-22T04:24:36.282Z,16.19
2017-12-22T04:25:36.129Z,16.19
2017-12-22T04:26:35.518Z,16.19
2017-12-22T04:27:36.199Z,16.19
2017-12-22T04:28:35.888Z,16.19
2017-12-22T04:29:36.131Z,16.19
2017-12-22T04:30:35.903Z,16.19
2017-12-22T04:31:35.961Z,16.19
2017-12-22T04:32:35.709Z,16.19
2017-12-22T04:33:35.924Z,16.12
2017-12-22T04:34:35.588Z,16.12
2017-12-22T04:35:36.143Z,16.12
2017-12-22T04:36:35.790Z,16.12
2017-12-22T04:37:36.165Z,16.12
2017-12-22T04:38:35.567Z,16.12
2017-12-22T04:39:35.940Z,16.12
2017-12-22T04:40:35.953Z,16.12
2017-12-22T04:41:35.868Z,16.12
2017-12-22T04:42:35.827Z,16.12
2017-12-22T04:43:36.402Z,16.12
2017-12-22T04:44:36.005Z,16.12
2017-12-22T04:45:35.950Z,16.12
2017-12-22T04:46:35.917Z,16.12
2017-12-22T04:47:35.722Z,16.12
2017-12-22T04:48:36.215Z,16.12
2017-12-22T04:49:35.942Z,16.12
2017-12-22T04:50:35.886Z,16.12
2017-12-22T04:51:36.259Z,16.12
2017-12-22T04:52:35.796Z,16.12
2017-12-22T04:53:36.382Z,16.12
2017-12-22T04:54:36.317Z,16.12
2017-12-22T04:55:36.562Z,16.12
2017-12-22T04:56:36.673Z,16.12
2017-12-22T04:57:36.137Z,16.12
2017-12-22T04:58:36.416Z,16.12
2017-12-22T04:59:36.562Z,16.12
2017-12-22T05:00:35.635Z,16.12
2017-12-22T05:01:37.367Z,16.12
2017-12-22T05:02:36.417Z,16.12
2017-12-22T05:03:36.496Z,16.12
2017-12-22T05:04:36.601Z,16.12
2017-12-22T05:05:35.883Z,16.12
2017-12-22T05:06:36.782Z,16.19
2017-12-22T05:07:35.412Z,16.19
2017-12-22T05:08:35.907Z,16.19
2017-12-22T05:09:36.497Z,16.19
2017-12-22T05:10:36.276Z,16.19
2017-12-22T05:11:36.945Z,16.19
2017-12-22T05:12:36.397Z,16.19
2017-12-22T05:13:36.532Z,16.19
2017-12-22T05:14:36.723Z,16.19
2017-12-22T05:15:36.492Z,16.25
2017-12-22T05:16:35.876Z,16.25
2017-12-22T05:17:36.296Z,16.25
2017-12-22T05:18:36.015Z,16.25
2017-12-22T05:19:36.686Z,16.25
2017-12-22T05:20:36.624Z,16.25
2017-12-22T05:21:36.816Z,16.31
2017-12-22T05:22:35.972Z,16.31
2017-12-22T05:23:36.496Z,16.31
2017-12-22T05:24:36.814Z,16.31
2017-12-22T05:25:36.375Z,16.31
2017-12-22T05:26:36.140Z,16.37
2017-12-22T05:27:37.025Z,16.37
2017-12-22T05:28:36.233Z,16.37
2017-12-22T05:29:36.600Z,16.44
2017-12-22T05:30:36.094Z,16.44
2017-12-22T05:31:36.711Z,16.44
2017-12-22T05:32:36.378Z,16.44
2017-12-22T05:33:36.086Z,16.5
2017-12-22T05:34:38.472Z,16.5
2017-12-22T05:35:37.269Z,16.5
2017-12-22T05:36:37.413Z,16.5
2017-12-22T05:37:35.862Z,16.56
2017-12-22T05:38:36.300Z,16.56
2017-12-22T05:39:36.367Z,16.56
2017-12-22T05:40:36.155Z,16.62
2017-12-22T05:41:36.077Z,16.62
2017-12-22T05:42:37.105Z,16.62
2017-12-22T05:43:37.258Z,16.62
2017-12-22T05:44:36.761Z,16.69
2017-12-22T05:45:36.326Z,16.69
2017-12-22T05:46:36.299Z,16.69
2017-12-22T05:47:37.088Z,16.69
2017-12-22T05:48:35.945Z,16.69
2017-12-22T05:49:36.082Z,16.75
2017-12-22T05:50:36.065Z,16.75
2017-12-22T05:51:36.070Z,16.75
2017-12-22T05:52:35.843Z,16.81
2017-12-22T05:53:36.040Z,16.81
2017-12-22T05:54:35.926Z,16.81
2017-12-22T05:55:36.105Z,16.81
2017-12-22T05:56:37.204Z,16.87
2017-12-22T05:57:42.727Z,16.87
2017-12-22T05:58:36.186Z,16.87
2017-12-22T05:59:35.983Z,16.87
2017-12-22T06:00:36.258Z,16.94
2017-12-22T06:01:36.820Z,16.94
2017-12-22T06:02:36.648Z,16.94
2017-12-22T06:03:37.567Z,16.94
2017-12-22T06:04:36.887Z,16.94
2017-12-22T06:05:36.200Z,17
2017-12-22T06:06:35.990Z,17
2017-12-22T06:07:36.584Z,17
2017-12-22T06:08:37.062Z,17
2017-12-22T06:09:37.250Z,17
2017-12-22T06:10:38.433Z,17.06
2017-12-22T06:11:38.032Z,17.06
2017-12-22T06:12:36.044Z,17.06
2017-12-22T06:13:36.610Z,17.06
2017-12-22T06:14:37.370Z,17.06
2017-12-22T06:15:37.641Z,17.12
2017-12-22T06:16:37.394Z,17.12
2017-12-22T06:17:36.750Z,17.12
2017-12-22T06:18:37.383Z,17.12
2017-12-22T06:19:36.100Z,17.12
2017-12-22T06:20:36.238Z,17.19
2017-12-22T06:21:36.450Z,17.19
2017-12-22T06:22:37.306Z,17.19
2017-12-22T06:23:36.314Z,17.19
2017-12-22T06:24:36.082Z,17.19
2017-12-22T06:25:35.681Z,17.19
2017-12-22T06:26:35.952Z,17.25
2017-12-22T06:27:36.749Z,17.25
2017-12-22T06:28:37.116Z,17.25
2017-12-22T06:29:36.581Z,17.25
2017-12-22T06:30:36.665Z,17.25
2017-12-22T06:31:36.264Z,17.25
2017-12-22T06:32:36.271Z,17.31
2017-12-22T06:33:36.148Z,17.31
2017-12-22T06:34:36.039Z,17.31
2017-12-22T06:35:36.514Z,17.31
2017-12-22T06:36:37.466Z,17.31
2017-12-22T06:37:35.704Z,17.31
2017-12-22T06:38:37.562Z,17.31
2017-12-22T06:39:36.505Z,17.37
2017-12-22T06:40:35.741Z,17.37
2017-12-22T06:41:36.235Z,17.37
2017-12-22T06:42:36.222Z,17.37
2017-12-22T06:43:36.522Z,17.37
2017-12-22T06:44:36.411Z,17.37
2017-12-22T06:45:36.294Z,17.37
2017-12-22T06:46:37.300Z,17.44
2017-12-22T06:47:37.433Z,17.44
2017-12-22T06:48:37.177Z,17.44
2017-12-22T06:49:36.429Z,17.44
2017-12-22T06:50:36.774Z,17.44
2017-12-22T06:51:36.381Z,17.44
2017-12-22T06:52:35.764Z,17.5
2017-12-22T06:53:37.494Z,17.5
2017-12-22T06:54:37.120Z,17.5
2017-12-22T06:55:36.693Z,17.5
2017-12-22T06:56:37.545Z,17.5
2017-12-22T06:57:36.589Z,17.5
2017-12-22T06:58:37.598Z,17.5
2017-12-22T06:59:37.757Z,17.5
2017-12-22T07:00:37.492Z,17.56
2017-12-22T07:01:36.892Z,17.5
2017-12-22T07:02:37.715Z,17.56
2017-12-22T07:03:37.025Z,17.56
2017-12-22T07:04:36.944Z,17.56
2017-12-22T07:05:37.410Z,17.56
2017-12-22T07:06:36.543Z,17.56
2017-12-22T07:07:37.606Z,17.56
2017-12-22T07:08:38.257Z,17.56
2017-12-22T07:09:36.730Z,17.56
2017-12-22T07:10:36.491Z,17.56
2017-12-22T07:11:36.716Z,17.62
2017-12-22T07:12:37.058Z,17.62
2017-12-22T07:13:36.409Z,17.62
2017-12-22T07:14:35.964Z,17.62
2017-12-22T07:15:38.188Z,17.62
2017-12-22T07:16:37.280Z,17.62
2017-12-22T07:17:36.866Z,17.62
2017-12-22T07:18:36.480Z,17.62
2017-12-22T07:19:36.543Z,17.62
2017-12-22T07:20:36.076Z,17.62
2017-12-22T07:21:36.483Z,17.62
2017-12-22T07:22:37.198Z,17.62
2017-12-22T07:23:37.616Z,17.62
2017-12-22T07:24:37.129Z,17.62
2017-12-22T07:25:36.218Z,17.62
2017-12-22T07:26:36.162Z,17.62
2017-12-22T07:27:36.128Z,17.62
2017-12-22T07:28:36.208Z,17.62
2017-12-22T07:29:35.776Z,17.62
2017-12-22T07:30:35.846Z,17.62
2017-12-22T07:31:35.790Z,17.62
2017-12-22T07:32:35.850Z,17.62
2017-12-22T07:33:35.964Z,17.62
2017-12-22T07:34:35.553Z,17.62
2017-12-22T07:35:35.603Z,17.62
2017-12-22T07:36:36.137Z,17.62
2017-12-22T07:37:35.848Z,17.62
2017-12-22T07:38:35.455Z,17.62
2017-12-22T07:39:35.419Z,17.62
2017-12-22T07:40:35.995Z,17.62
2017-12-22T07:41:36.025Z,17.62
2017-12-22T07:42:36.188Z,17.62
2017-12-22T07:43:36.029Z,17.62
2017-12-22T07:44:36.383Z,17.62
2017-12-22T07:45:35.942Z,17.62
2017-12-22T07:46:36.437Z,17.62
2017-12-22T07:47:36.068Z,17.62
2017-12-22T07:48:36.617Z,17.56
2017-12-22T07:49:36.183Z,17.62
2017-12-22T07:50:36.161Z,17.62
2017-12-22T07:51:36.146Z,17.62
2017-12-22T07:52:36.449Z,17.62
2017-12-22T07:53:36.637Z,17.62
2017-12-22T07:54:36.588Z,17.62
2017-12-22T07:55:36.171Z,17.62
2017-12-22T07:56:36.501Z,17.62
2017-12-22T07:57:35.970Z,17.62
2017-12-22T07:58:36.569Z,17.62
2017-12-22T07:59:36.075Z,17.62
2017-12-22T08:00:36.344Z,17.62
2017-12-22T08:01:35.732Z,17.62
2017-12-22T08:02:36.407Z,17.62
2017-12-22T08:03:35.827Z,17.62
2017-12-22T08:04:36.387Z,17.62
2017-12-22T08:05:36.221Z,17.62
2017-12-22T08:06:35.864Z,17.62
2017-12-22T08:07:36.073Z,17.62
2017-12-22T08:08:35.602Z,17.62
2017-12-22T08:09:36.379Z,17.62
2017-12-22T08:10:36.052Z,17.62
2017-12-22T08:11:36.296Z,17.62
2017-12-22T08:12:35.809Z,17.62
2017-12-22T08:13:35.765Z,17.62
2017-12-22T08:14:36.011Z,17.62
2017-12-22T08:15:36.098Z,17.69
2017-12-22T08:16:35.838Z,17.62
2017-12-22T08:17:35.812Z,17.62
2017-12-22T08:18:35.424Z,17.69
2017-12-22T08:19:35.943Z,17.69
2017-12-22T08:20:35.874Z,17.69
2017-12-22T08:21:36.226Z,17.69
2017-12-22T08:22:36.480Z,17.69
2017-12-22T08:23:36.032Z,17.69
2017-12-22T08:24:36.207Z,17.69
2017-12-22T08:25:35.498Z,17.69
2017-12-22T08:26:36.355Z,17.69
2017-12-22T08:27:35.778Z,17.69
2017-12-22T08:28:35.839Z,17.69
2017-12-22T08:29:36.246Z,17.69
2017-12-22T08:30:36.078Z,17.69
2017-12-22T08:31:36.248Z,17.69
2017-12-22T08:32:35.802Z,17.69
2017-12-22T08:33:36.179Z,17.69
2017-12-22T08:34:35.774Z,17.69
2017-12-22T08:35:36.205Z,17.69
2017-12-22T08:36:35.812Z,17.69
2017-12-22T08:37:35.631Z,17.69
2017-12-22T08:38:35.852Z,17.69
2017-12-22T08:39:36.066Z,17.69
2017-12-22T08:40:36.243Z,17.69
2017-12-22T08:41:36.186Z,17.69
2017-12-22T08:42:36.418Z,17.69
2017-12-22T08:43:36.338Z,17.69
2017-12-22T08:44:36.361Z,17.69
2017-12-22T08:45:35.692Z,17.69
2017-12-22T08:46:36.074Z,17.69
2017-12-22T08:47:35.890Z,17.69
2017-12-22T08:48:36.265Z,17.69
2017-12-22T08:49:35.862Z,17.69
2017-12-22T08:50:36.085Z,17.69
2017-12-22T08:51:36.086Z,17.69
2017-12-22T08:52:35.857Z,17.69
2017-12-22T08:53:36.258Z,17.69
2017-12-22T08:54:36.220Z,17.69
2017-12-22T08:55:36.264Z,17.69
2017-12-22T08:56:36.030Z,17.69
2017-12-22T08:57:36.428Z,17.69
2017-12-22T08:58:36.078Z,17.69
2017-12-22T08:59:36.264Z,17.69
2017-12-22T09:00:35.620Z,17.69
2017-12-22T09:01:35.695Z,17.69
2017-12-22T09:02:35.838Z,17.69
2017-12-22T09:03:36.313Z,17.69
2017-12-22T09:04:35.913Z,17.75
2017-12-22T09:05:36.041Z,17.75
2017-12-22T09:06:35.870Z,17.75
2017-12-22T09:07:36.668Z,17.75
2017-12-22T09:08:36.298Z,17.75
2017-12-22T09:09:35.980Z,17.75
2017-12-22T09:10:36.510Z,17.75
2017-12-22T09:11:35.836Z,17.75
2017-12-22T09:12:36.026Z,17.75
2017-12-22T09:13:41.763Z,17.75
2017-12-22T09:14:35.878Z,17.81
2017-12-22T09:15:36.442Z,17.81
2017-12-22T09:16:36.039Z,17.81
2017-12-22T09:17:35.821Z,17.81
2017-12-22T09:18:35.857Z,17.81
2017-12-22T09:19:36.436Z,17.81
2017-12-22T09:20:35.860Z,17.81
2017-12-22T09:21:36.287Z,17.81
2017-12-22T09:22:35.856Z,17.81
2017-12-22T09:23:36.003Z,17.81
2017-12-22T09:24:36.679Z,17.81
2017-12-22T09:25:36.611Z,17.81
2017-12-22T09:26:36.045Z,17.81
2017-12-22T09:27:35.868Z,17.81
2017-12-22T09:28:36.320Z,17.81
2017-12-22T09:29:58.566Z,17.81
2017-12-22T09:30:36.071Z,17.81
2017-12-22T09:31:36.752Z,17.81
2017-12-22T09:32:35.857Z,17.81
2017-12-22T09:33:35.629Z,17.81
2017-12-22T09:34:35.813Z,17.81
2017-12-22T09:35:36.055Z,17.81
2017-12-22T09:36:36.067Z,17.87
2017-12-22T09:37:36.482Z,17.87
2017-12-22T09:38:36.087Z,17.87
2017-12-22T09:39:35.900Z,17.87
2017-12-22T09:40:36.725Z,17.87
2017-12-22T09:41:36.028Z,17.87
2017-12-22T09:42:35.970Z,17.87
2017-12-22T09:43:36.217Z,17.87
2017-12-22T09:44:36.226Z,17.87
2017-12-22T09:45:36.297Z,17.87
2017-12-22T09:46:36.264Z,17.87
2017-12-22T09:47:36.387Z,17.87
2017-12-22T09:48:35.851Z,17.87
2017-12-22T09:49:36.055Z,17.87
2017-12-22T09:50:36.035Z,17.87
2017-12-22T09:51:36.046Z,17.87
2017-12-22T09:52:35.900Z,17.87
2017-12-22T09:53:36.266Z,17.87
2017-12-22T09:54:36.240Z,17.87
2017-12-22T09:55:36.393Z,17.87
2017-12-22T09:56:36.112Z,17.87
2017-12-22T09:57:36.055Z,17.87
2017-12-22T09:58:35.633Z,17.87
2017-12-22T09:59:36.053Z,17.87
2017-12-22T10:00:36.296Z,17.94
2017-12-22T10:01:36.069Z,17.94
2017-12-22T10:02:36.031Z,17.94
2017-12-22T10:03:36.719Z,17.94
2017-12-22T10:04:36.346Z,17.94
2017-12-22T10:05:36.092Z,17.94
2017-12-22T10:06:36.314Z,17.94
2017-12-22T10:07:35.958Z,17.94
2017-12-22T10:08:36.313Z,17.94
2017-12-22T10:09:36.255Z,17.94
2017-12-22T10:10:36.257Z,17.94
2017-12-22T10:11:36.275Z,17.94
2017-12-22T10:12:36.038Z,17.94
2017-12-22T10:13:36.302Z,17.94
2017-12-22T10:14:36.329Z,17.94
2017-12-22T10:15:35.880Z,17.94
2017-12-22T10:16:36.262Z,17.94
2017-12-22T10:17:36.444Z,17.94
2017-12-22T10:18:36.461Z,17.94
2017-12-22T10:19:36.474Z,17.94
2017-12-22T10:20:38.453Z,17.94
2017-12-22T10:21:36.100Z,17.94
2017-12-22T10:22:36.206Z,17.94
2017-12-22T10:23:36.486Z,17.94
2017-12-22T10:24:36.262Z,17.94
2017-12-22T10:25:36.019Z,17.94
2017-12-22T10:26:36.530Z,17.94
2017-12-22T10:27:36.720Z,17.94
2017-12-22T10:28:36.604Z,17.94
2017-12-22T10:29:35.615Z,17.94
2017-12-22T10:30:36.081Z,17.87
2017-12-22T10:31:36.464Z,17.94
2017-12-22T10:32:36.259Z,17.94
2017-12-22T10:33:36.488Z,17.94
2017-12-22T10:34:36.667Z,17.94
2017-12-22T10:35:36.210Z,17.94
2017-12-22T10:36:36.033Z,17.94
2017-12-22T10:37:35.505Z,17.87
2017-12-22T10:38:36.260Z,17.94
2017-12-22T10:39:36.086Z,17.87
2017-12-22T10:40:35.462Z,17.87
2017-12-22T10:41:36.544Z,17.94
2017-12-22T10:42:36.566Z,17.87
2017-12-22T10:43:35.703Z,17.94
2017-12-22T10:44:36.078Z,17.94
2017-12-22T10:45:36.093Z,17.94
2017-12-22T10:46:35.910Z,17.94
2017-12-22T10:47:36.284Z,17.94
2017-12-22T10:48:36.421Z,17.94
2017-12-22T10:49:36.059Z,17.87
2017-12-22T10:50:36.622Z,17.94
2017-12-22T10:51:36.297Z,17.87
2017-12-22T10:52:35.997Z,18
2017-12-22T10:53:45.792Z,18
2017-12-22T10:54:36.139Z,18
2017-12-22T10:55:36.028Z,18
2017-12-22T10:56:36.434Z,18.06
2017-12-22T10:57:35.930Z,18.06
2017-12-22T10:58:36.520Z,18.06
2017-12-22T10:59:35.885Z,18.06
2017-12-22T11:00:35.498Z,18.06
2017-12-22T11:01:35.974Z,18.12
2017-12-22T11:02:36.396Z,18.12
2017-12-22T11:03:36.310Z,18.12
2017-12-22T11:04:36.241Z,18.12
2017-12-22T11:05:36.694Z,18.12
2017-12-22T11:06:35.721Z,18.12
2017-12-22T11:07:36.475Z,18.19
2017-12-22T11:08:35.870Z,18.19
2017-12-22T11:09:35.946Z,18.19
2017-12-22T11:10:36.525Z,18.19
2017-12-22T11:11:36.257Z,18.19
2017-12-22T11:12:35.934Z,18.25
2017-12-22T11:13:36.757Z,18.25
2017-12-22T11:14:36.112Z,18.25
2017-12-22T11:15:36.487Z,18.25
2017-12-22T11:16:35.928Z,18.25
2017-12-22T11:17:36.371Z,18.25
2017-12-22T11:18:36.374Z,18.25
2017-12-22T11:19:36.149Z,18.25
2017-12-22T11:20:35.898Z,18.25
2017-12-22T11:21:35.914Z,18.25
2017-12-22T11:22:36.432Z,18.25
2017-12-22T11:23:36.102Z,18.25
2017-12-22T11:24:37.267Z,18.25
2017-12-22T11:25:36.221Z,18.25
2017-12-22T11:26:36.153Z,18.25
2017-12-22T11:27:36.102Z,18.25
2017-12-22T11:28:36.258Z,18.25
2017-12-22T11:29:36.461Z,18.25
2017-12-22T11:30:35.906Z,18.25
2017-12-22T11:31:36.099Z,18.25
2017-12-22T11:32:36.403Z,18.25
2017-12-22T11:33:36.298Z,18.25
2017-12-22T11:34:36.052Z,18.25
2017-12-22T11:35:36.292Z,18.25
2017-12-22T11:36:35.984Z,18.25
2017-12-22T11:37:35.914Z,18.25
2017-12-22T11:38:36.322Z,18.25
2017-12-22T11:39:36.105Z,18.25
2017-12-22T11:40:36.133Z,18.25
2017-12-22T11:41:35.692Z,18.25
2017-12-22T11:42:35.973Z,18.31
2017-12-22T11:43:36.165Z,18.25
2017-12-22T11:44:36.200Z,18.31
2017-12-22T11:45:36.564Z,18.31
2017-12-22T11:46:36.289Z,18.31
2017-12-22T11:47:35.840Z,18.31
2017-12-22T11:48:36.311Z,18.31
2017-12-22T11:49:36.303Z,18.25
2017-12-22T11:50:36.120Z,18.25
2017-12-22T11:51:36.240Z,18.25
2017-12-22T11:52:36.312Z,18.25
2017-12-22T11:53:35.895Z,18.25
2017-12-22T11:54:36.137Z,18.25
2017-12-22T11:55:36.112Z,18.25
2017-12-22T11:56:36.007Z,18.25
2017-12-22T11:57:36.142Z,18.25
2017-12-22T11:58:36.559Z,18.25
2017-12-22T11:59:36.147Z,18.25
2017-12-22T12:00:36.534Z,18.25
2017-12-22T12:01:36.046Z,18.19
2017-12-22T12:02:36.710Z,18.19
2017-12-22T12:03:36.103Z,18.19
2017-12-22T12:04:35.739Z,18.19
2017-12-22T12:05:36.140Z,18.19
2017-12-22T12:06:35.739Z,18.19
2017-12-22T12:07:36.133Z,18.19
2017-12-22T12:08:36.293Z,18.19
2017-12-22T12:09:36.292Z,18.19
2017-12-22T12:10:36.330Z,18.19
2017-12-22T12:11:36.303Z,18.25
2017-12-22T12:12:35.983Z,18.25
2017-12-22T12:13:36.357Z,18.25
2017-12-22T12:14:36.630Z,18.25
2017-12-22T12:15:36.182Z,18.25
2017-12-22T12:16:36.319Z,18.25
2017-12-22T12:17:35.733Z,18.25
2017-12-22T12:18:36.322Z,18.25
2017-12-22T12:19:36.197Z,18.25
2017-12-22T12:20:36.161Z,18.25
2017-12-22T12:21:36.178Z,18.25
2017-12-22T12:22:36.555Z,18.25
2017-12-22T12:23:36.359Z,18.25
2017-12-22T12:24:36.213Z,18.25
2017-12-22T12:25:35.937Z,18.25
2017-12-22T12:26:36.275Z,18.25
2017-12-22T12:27:36.216Z,18.25
2017-12-22T12:28:36.149Z,18.25
2017-12-22T12:29:36.936Z,18.25
2017-12-22T12:30:36.343Z,18.25
2017-12-22T12:31:36.326Z,18.25
2017-12-22T12:32:36.338Z,18.25
2017-12-22T12:33:36.332Z,18.25
2017-12-22T12:34:36.200Z,18.25
2017-12-22T12:35:35.773Z,18.25
2017-12-22T12:36:36.289Z,18.25
2017-12-22T12:37:36.008Z,18.25
2017-12-22T12:38:36.256Z,18.25
2017-12-22T12:39:35.769Z,18.25
2017-12-22T12:40:35.949Z,18.25
2017-12-22T12:41:36.709Z,18.31
2017-12-22T12:42:36.342Z,18.25
2017-12-22T12:43:36.557Z,18.31
2017-12-22T12:44:36.332Z,18.25
2017-12-22T12:45:36.134Z,18.31
2017-12-22T12:46:36.839Z,18.31
2017-12-22T12:47:36.299Z,18.31
2017-12-22T12:48:36.748Z,18.31
2017-12-22T12:49:37.408Z,18.31
2017-12-22T12:50:36.512Z,18.31
2017-12-22T12:51:36.440Z,18.37
2017-12-22T12:52:36.175Z,18.37
2017-12-22T12:53:36.111Z,18.37
2017-12-22T12:54:36.788Z,18.37
2017-12-22T12:55:35.823Z,18.37